createdAt,value
2018-09-30T00:02:20.150Z,99.90
2018-09-30T00:04:48.803Z,99.90
2018-09-30T00:07:17.437Z,99.90
2018-09-30T00:09:46.173Z,99.90
2018-09-30T00:12:14.826Z,99.90
2018-09-30T00:14:43.350Z,99.90
2018-09-30T00:17:11.974Z,99.90
2018-09-30T00:19:40.646Z,99.90
2018-09-30T00:22:09.183Z,99.90
2018-09-30T00:24:43.101Z,99.90
2018-09-30T00:27:17.046Z,99.90
2018-09-30T00:29:45.588Z,99.90
2018-09-30T00:32:14.234Z,99.90
2018-09-30T00:34:42.863Z,99.90
2018-09-30T00:37:11.467Z,99.90
2018-09-30T00:39:40.311Z,99.90
2018-09-30T00:42:08.925Z,99.90
2018-09-30T00:44:37.693Z,99.90
2018-09-30T00:47:06.468Z,99.90
2018-09-30T00:49:35.167Z,99.90
2018-09-30T00:52:03.726Z,99.90
2018-09-30T00:54:32.488Z,99.90
2018-09-30T00:57:01.161Z,99.90
2018-09-30T00:59:29.704Z,99.90
2018-09-30T01:01:58.227Z,99.90
2018-09-30T01:04:26.852Z,99.90
2018-09-30T01:06:55.501Z,99.90
2018-09-30T01:09:24.053Z,99.90
2018-09-30T01:11:52.695Z,99.90
2018-09-30T01:14:21.397Z,99.90
2018-09-30T01:16:50.129Z,99.90
2018-09-30T01:19:18.718Z,99.90
2018-09-30T01:21:47.412Z,99.90
2018-09-30T01:24:16.106Z,99.90
2018-09-30T01:26:44.675Z,99.90
2018-09-30T01:29:13.345Z,99.90
2018-09-30T01:31:41.986Z,99.90
2018-09-30T01:34:10.642Z,99.90
2018-09-30T01:36:39.250Z,99.90
2018-09-30T01:39:08.242Z,99.90
2018-09-30T01:41:37.058Z,99.90
2018-09-30T01:44:05.622Z,99.90
2018-09-30T01:46:34.175Z,99.90
2018-09-30T01:49:02.738Z,99.90
2018-09-30T01:51:31.401Z,99.90
2018-09-30T01:54:00.078Z,99.90
2018-09-30T01:56:28.693Z,99.90
2018-09-30T01:58:57.376Z,99.90
2018-09-30T02:01:25.957Z,99.90
2018-09-30T02:03:54.596Z,99.90
2018-09-30T02:06:23.285Z,99.90
2018-09-30T02:08:51.890Z,99.90
2018-09-30T02:11:20.471Z,99.90
2018-09-30T02:13:49.126Z,99.90
2018-09-30T02:16:17.778Z,99.90
2018-09-30T02:18:46.435Z,99.90
2018-09-30T02:21:15.098Z,99.90
2018-09-30T02:23:43.651Z,99.90
2018-09-30T02:26:12.286Z,99.90
2018-09-30T02:28:40.982Z,99.90
2018-09-30T02:31:09.669Z,99.90
2018-09-30T02:33:38.228Z,99.90
2018-09-30T02:36:06.864Z,99.90
2018-09-30T02:38:35.613Z,99.90
2018-09-30T02:41:04.320Z,99.90
2018-09-30T02:43:32.992Z,99.90
2018-09-30T02:46:01.675Z,99.90
2018-09-30T02:48:30.342Z,99.90
2018-09-30T02:50:59.024Z,99.90
2018-09-30T02:53:31.794Z,99.90
2018-09-30T02:56:00.576Z,99.90
2018-09-30T02:58:29.240Z,99.90
2018-09-30T03:00:57.950Z,99.90
2018-09-30T03:03:26.662Z,99.90
2018-09-30T03:05:55.245Z,99.90
2018-09-30T03:08:29.131Z,99.90
2018-09-30T03:10:57.757Z,99.90
2018-09-30T03:13:26.342Z,99.90
2018-09-30T03:15:54.954Z,99.90
2018-09-30T03:18:23.582Z,99.90
2018-09-30T03:20:52.182Z,99.90
2018-09-30T03:23:20.980Z,99.90
2018-09-30T03:25:49.746Z,99.90
2018-09-30T03:28:18.462Z,99.90
2018-09-30T03:30:47.113Z,99.90
2018-09-30T03:33:15.646Z,99.90
2018-09-30T03:35:44.272Z,99.90
2018-09-30T03:38:12.968Z,99.90
2018-09-30T03:40:41.614Z,99.90
2018-09-30T03:43:10.296Z,99.90
2018-09-30T03:45:38.962Z,99.90
2018-09-30T03:48:07.582Z,99.90
2018-09-30T03:50:36.168Z,99.90
2018-09-30T03:53:04.833Z,99.90
2018-09-30T03:55:33.458Z,99.90
2018-09-30T03:58:02.326Z,99.90
2018-09-30T04:00:30.955Z,99.90
2018-09-30T04:02:59.562Z,99.90
2018-09-30T04:05:28.672Z,99.90
2018-09-30T04:07:57.459Z,99.90
2018-09-30T04:10:26.119Z,99.90
2018-09-30T04:12:54.806Z,99.90
2018-09-30T04:15:23.447Z,99.90
2018-09-30T04:17:52.137Z,99.90
2018-09-30T04:20:20.680Z,99.90
2018-09-30T04:22:49.276Z,99.90
2018-09-30T04:25:18.002Z,99.90
2018-09-30T04:27:46.617Z,99.90
2018-09-30T04:30:15.213Z,99.90
2018-09-30T04:32:43.811Z,99.90
2018-09-30T04:35:12.470Z,99.90
2018-09-30T04:37:41.090Z,99.90
2018-09-30T04:40:09.658Z,99.90
2018-09-30T04:42:38.292Z,99.90
2018-09-30T04:45:07.099Z,99.90
2018-09-30T04:47:35.719Z,99.90
2018-09-30T04:50:04.626Z,99.90
2018-09-30T04:52:33.265Z,99.90
2018-09-30T04:55:01.851Z,99.90
2018-09-30T04:57:30.430Z,99.90
2018-09-30T04:59:59.096Z,99.90
2018-09-30T05:02:27.671Z,99.90
2018-09-30T05:04:56.338Z,99.90
2018-09-30T05:07:24.897Z,99.90
2018-09-30T05:09:53.486Z,99.90
2018-09-30T05:12:22.036Z,99.90
2018-09-30T05:14:50.751Z,99.90
2018-09-30T05:17:19.344Z,99.90
2018-09-30T05:19:47.998Z,99.90
2018-09-30T05:22:16.568Z,99.90
2018-09-30T05:24:45.228Z,99.90
2018-09-30T05:27:13.820Z,99.90
2018-09-30T05:29:42.402Z,99.90
2018-09-30T05:32:10.993Z,99.90
2018-09-30T05:34:46.123Z,99.90
2018-09-30T05:37:15.508Z,99.90
2018-09-30T05:39:44.039Z,99.90
2018-09-30T05:42:12.710Z,99.90
2018-09-30T05:44:41.328Z,99.90
2018-09-30T05:47:09.902Z,99.90
2018-09-30T05:49:38.778Z,99.90
2018-09-30T05:52:08.656Z,99.90
2018-09-30T05:54:37.279Z,99.90
2018-09-30T05:57:06.692Z,99.90
2018-09-30T05:59:35.316Z,99.90
2018-09-30T06:02:03.864Z,99.90
2018-09-30T06:04:32.542Z,99.90
2018-09-30T06:07:01.854Z,99.90
2018-09-30T06:09:30.571Z,99.90
2018-09-30T06:11:59.497Z,99.90
2018-09-30T06:14:28.094Z,99.90
2018-09-30T06:16:56.817Z,99.90
2018-09-30T06:19:25.450Z,99.90
2018-09-30T06:21:54.180Z,99.90
2018-09-30T06:24:23.721Z,99.90
2018-09-30T06:26:52.347Z,99.90
2018-09-30T06:29:21.211Z,99.90
2018-09-30T06:31:49.976Z,99.90
2018-09-30T06:34:22.571Z,99.90
2018-09-30T06:36:51.285Z,99.90
2018-09-30T06:39:19.904Z,99.90
2018-09-30T06:41:48.488Z,99.90
2018-09-30T06:44:17.190Z,99.90
2018-09-30T06:46:45.929Z,99.90
2018-09-30T06:49:14.518Z,99.90
2018-09-30T06:51:43.157Z,99.90
2018-09-30T06:54:12.325Z,99.90
2018-09-30T06:56:41.038Z,99.90
2018-09-30T06:59:10.387Z,99.90
2018-09-30T07:01:39.078Z,99.90
2018-09-30T07:04:08.154Z,99.90
2018-09-30T07:06:36.786Z,99.90
2018-09-30T07:09:07.514Z,99.90
2018-09-30T07:11:36.320Z,99.90
2018-09-30T07:14:05.065Z,99.90
2018-09-30T07:16:33.957Z,99.90
2018-09-30T07:19:02.650Z,99.90
2018-09-30T07:21:31.259Z,99.90
2018-09-30T07:23:59.979Z,99.90
2018-09-30T07:26:28.629Z,99.90
2018-09-30T07:29:03.756Z,99.90
2018-09-30T07:31:32.354Z,99.90
2018-09-30T07:34:01.005Z,99.90
2018-09-30T07:36:29.570Z,99.90
2018-09-30T07:38:58.576Z,99.90
2018-09-30T07:41:27.263Z,99.90
2018-09-30T07:43:56.899Z,99.90
2018-09-30T07:46:25.529Z,99.90
2018-09-30T07:48:54.243Z,99.90
2018-09-30T07:51:22.907Z,99.90
2018-09-30T07:53:51.510Z,99.90
2018-09-30T07:56:20.195Z,99.90
2018-09-30T07:58:48.785Z,99.90
2018-09-30T08:01:17.596Z,99.90
2018-09-30T08:03:46.666Z,99.90
2018-09-30T08:06:15.435Z,99.90
2018-09-30T08:08:44.063Z,99.90
2018-09-30T08:11:12.852Z,99.90
2018-09-30T08:13:41.627Z,99.90
2018-09-30T08:16:10.499Z,99.90
2018-09-30T08:18:39.279Z,99.90
2018-09-30T08:21:08.228Z,99.90
2018-09-30T08:23:37.084Z,99.90
2018-09-30T08:26:05.784Z,99.90
2018-09-30T08:28:34.537Z,99.90
2018-09-30T08:31:03.373Z,99.90
2018-09-30T08:33:32.115Z,99.90
2018-09-30T08:36:06.046Z,99.90
2018-09-30T08:38:35.859Z,99.90
2018-09-30T08:41:13.614Z,99.90
2018-09-30T08:43:43.345Z,99.90
2018-09-30T08:46:12.178Z,99.90
2018-09-30T08:48:40.834Z,99.90
2018-09-30T08:51:09.945Z,99.90
2018-09-30T08:53:38.622Z,99.90
2018-09-30T08:56:07.643Z,99.90
2018-09-30T08:58:36.409Z,99.90
2018-09-30T09:01:05.232Z,99.90
2018-09-30T09:03:33.937Z,99.90
2018-09-30T09:06:02.648Z,99.90
2018-09-30T09:08:31.356Z,99.90
2018-09-30T09:10:59.948Z,99.90
2018-09-30T09:13:28.818Z,99.90
2018-09-30T09:15:57.504Z,99.90
2018-09-30T09:18:26.408Z,99.90
2018-09-30T09:20:55.173Z,99.90
2018-09-30T09:23:24.027Z,99.90
2018-09-30T09:25:53.262Z,99.90
2018-09-30T09:28:22.273Z,99.90
2018-09-30T09:30:51.155Z,99.90
2018-09-30T09:33:20.016Z,99.90
2018-09-30T09:35:48.938Z,99.90
2018-09-30T09:38:18.296Z,99.90
2018-09-30T09:40:47.137Z,99.90
2018-09-30T09:43:15.940Z,99.90
2018-09-30T09:45:44.614Z,99.90
2018-09-30T09:48:13.478Z,99.90
2018-09-30T09:50:42.305Z,99.90
2018-09-30T09:53:10.997Z,99.90
2018-09-30T09:55:39.963Z,99.90
2018-09-30T09:58:08.671Z,99.90
2018-09-30T10:00:43.382Z,99.90
2018-09-30T10:03:12.829Z,99.90
2018-09-30T10:05:41.595Z,99.90
2018-09-30T10:08:11.671Z,99.90
2018-09-30T10:10:40.878Z,99.90
2018-09-30T10:13:10.377Z,99.90
2018-09-30T10:15:39.089Z,99.90
2018-09-30T10:18:07.876Z,99.90
2018-09-30T10:20:36.817Z,99.90
2018-09-30T10:23:05.512Z,99.90
2018-09-30T10:25:34.416Z,99.90
2018-09-30T10:28:03.239Z,99.90
2018-09-30T10:30:32.480Z,99.90
2018-09-30T10:33:01.223Z,99.90
2018-09-30T10:35:29.915Z,99.90
2018-09-30T10:37:58.598Z,99.90
2018-09-30T10:40:27.651Z,99.90
2018-09-30T10:42:56.318Z,99.90
2018-09-30T10:45:25.412Z,99.90
2018-09-30T10:47:54.367Z,99.90
2018-09-30T10:50:23.743Z,99.90
2018-09-30T10:52:52.429Z,99.90
2018-09-30T10:55:21.236Z,99.90
2018-09-30T10:57:49.899Z,99.90
2018-09-30T11:00:18.692Z,99.90
2018-09-30T11:02:47.378Z,99.90
2018-09-30T11:05:16.132Z,99.90
2018-09-30T11:07:44.855Z,99.90
2018-09-30T11:10:13.729Z,99.90
2018-09-30T11:12:42.583Z,99.90
2018-09-30T11:15:11.397Z,99.90
2018-09-30T11:17:40.135Z,99.90
2018-09-30T11:20:09.041Z,99.60
2018-09-30T11:22:37.979Z,99.70
2018-09-30T11:25:06.567Z,99.90
2018-09-30T11:27:35.309Z,99.20
2018-09-30T11:30:04.079Z,99.30
2018-09-30T11:32:32.860Z,99.10
2018-09-30T11:35:01.558Z,99.00
2018-09-30T11:37:30.681Z,98.80
2018-09-30T11:39:59.570Z,98.20
2018-09-30T11:42:28.874Z,97.80
2018-09-30T11:44:57.630Z,98.60
2018-09-30T11:47:26.407Z,97.70
2018-09-30T11:49:55.174Z,97.30
2018-09-30T11:52:23.817Z,97.20
2018-09-30T11:54:52.499Z,96.10
2018-09-30T11:57:21.463Z,96.00
2018-09-30T11:59:50.323Z,95.50
2018-09-30T12:02:19.052Z,95.40
2018-09-30T12:04:47.709Z,95.70
2018-09-30T12:07:16.416Z,95.50
2018-09-30T12:09:45.279Z,95.20
2018-09-30T12:12:13.983Z,95.70
2018-09-30T12:14:42.820Z,95.60
2018-09-30T12:17:18.228Z,95.10
2018-09-30T12:19:46.844Z,94.70
2018-09-30T12:22:15.526Z,93.30
2018-09-30T12:24:44.144Z,93.80
2018-09-30T12:27:12.870Z,94.00
2018-09-30T12:29:41.631Z,93.30
2018-09-30T12:32:10.275Z,93.40
2018-09-30T12:34:39.105Z,93.30
2018-09-30T12:37:07.815Z,92.50
2018-09-30T12:39:36.763Z,91.70
2018-09-30T12:42:05.394Z,91.90
2018-09-30T12:44:34.083Z,91.90
2018-09-30T12:47:02.714Z,91.40
2018-09-30T12:49:31.600Z,91.70
2018-09-30T12:52:00.941Z,91.10
2018-09-30T12:54:30.055Z,90.30
2018-09-30T12:56:58.615Z,89.80
2018-09-30T12:59:27.875Z,88.00
2018-09-30T13:01:56.520Z,87.10
2018-09-30T13:04:25.255Z,85.00
2018-09-30T13:06:53.858Z,84.60
2018-09-30T13:09:22.469Z,85.40
2018-09-30T13:11:51.170Z,85.70
2018-09-30T13:14:19.852Z,85.50
2018-09-30T13:16:48.536Z,85.60
2018-09-30T13:19:17.197Z,85.90
2018-09-30T13:21:46.042Z,86.90
2018-09-30T13:24:14.730Z,86.20
2018-09-30T13:26:43.381Z,86.60
2018-09-30T13:29:12.137Z,87.20
2018-09-30T13:31:42.527Z,86.80
2018-09-30T13:34:11.170Z,86.40
2018-09-30T13:36:39.835Z,85.90
2018-09-30T13:39:10.407Z,87.40
2018-09-30T13:41:40.046Z,87.50
2018-09-30T13:44:08.690Z,88.00
2018-09-30T13:46:37.876Z,87.50
2018-09-30T13:49:06.855Z,88.00
2018-09-30T13:51:36.275Z,88.60
2018-09-30T13:54:04.973Z,90.00
2018-09-30T13:56:34.597Z,90.00
2018-09-30T13:59:03.230Z,90.20
2018-09-30T14:01:31.946Z,91.20
2018-09-30T14:04:00.562Z,90.90
2018-09-30T14:06:29.189Z,91.20
2018-09-30T14:08:57.830Z,91.60
2018-09-30T14:11:26.404Z,91.50
2018-09-30T14:13:54.999Z,91.40
2018-09-30T14:16:23.763Z,91.70
2018-09-30T14:18:52.338Z,92.00
2018-09-30T14:21:21.027Z,91.70
2018-09-30T14:23:49.820Z,92.10
2018-09-30T14:26:18.445Z,92.20
2018-09-30T14:28:47.344Z,91.80
2018-09-30T14:31:15.998Z,92.00
2018-09-30T14:33:45.326Z,91.80
2018-09-30T14:36:13.985Z,91.60
2018-09-30T14:38:42.921Z,91.50
2018-09-30T14:41:11.588Z,91.50
2018-09-30T14:43:40.359Z,91.40
2018-09-30T14:46:09.041Z,91.80
2018-09-30T14:48:38.289Z,92.10
2018-09-30T14:51:07.045Z,92.30
2018-09-30T14:53:35.677Z,92.30
2018-09-30T14:56:04.363Z,92.20
2018-09-30T14:58:33.419Z,92.80
2018-09-30T15:01:02.029Z,92.80
2018-09-30T15:03:30.782Z,93.00
2018-09-30T15:05:59.722Z,93.20
2018-09-30T15:08:28.613Z,93.20
2018-09-30T15:10:57.419Z,93.00
2018-09-30T15:13:26.408Z,93.40
2018-09-30T15:15:55.086Z,93.50
2018-09-30T15:18:23.981Z,93.10
2018-09-30T15:20:52.652Z,92.40
2018-09-30T15:23:21.353Z,92.80
2018-09-30T15:25:50.205Z,91.90
2018-09-30T15:28:18.953Z,91.80
2018-09-30T15:30:47.601Z,90.50
2018-09-30T15:33:16.336Z,89.30
2018-09-30T15:35:45.306Z,87.90
2018-09-30T15:38:14.617Z,87.10
2018-09-30T15:40:44.196Z,84.60
2018-09-30T15:43:12.974Z,85.10
2018-09-30T15:45:41.782Z,85.60
2018-09-30T15:48:10.362Z,86.40
2018-09-30T15:50:39.500Z,87.20
2018-09-30T15:53:08.138Z,87.60
2018-09-30T15:55:36.878Z,87.70
2018-09-30T15:58:05.642Z,87.70
2018-09-30T16:00:34.309Z,87.20
2018-09-30T16:03:02.947Z,88.40
2018-09-30T16:05:31.725Z,88.30
2018-09-30T16:08:00.378Z,88.60
2018-09-30T16:10:29.366Z,89.10
2018-09-30T16:12:58.056Z,89.40
2018-09-30T16:15:26.725Z,89.50
2018-09-30T16:17:56.088Z,90.00
2018-09-30T16:20:24.795Z,90.10
2018-09-30T16:22:53.719Z,90.30
2018-09-30T16:25:22.778Z,90.50
2018-09-30T16:27:51.539Z,90.70
2018-09-30T16:30:20.328Z,90.70
2018-09-30T16:32:49.356Z,90.90
2018-09-30T16:35:18.149Z,91.00
2018-09-30T16:37:46.752Z,91.20
2018-09-30T16:40:15.447Z,91.40
2018-09-30T16:42:45.206Z,91.60
2018-09-30T16:45:13.932Z,91.70
2018-09-30T16:47:42.946Z,92.20
2018-09-30T16:50:11.870Z,92.10
2018-09-30T16:52:40.899Z,92.20
2018-09-30T16:55:09.891Z,92.50
2018-09-30T16:57:38.614Z,92.80
2018-09-30T17:00:09.181Z,92.90
2018-09-30T17:02:37.835Z,93.20
2018-09-30T17:05:06.642Z,93.10
2018-09-30T17:07:35.608Z,93.40
2018-09-30T17:10:04.256Z,94.10
2018-09-30T17:12:32.868Z,93.40
2018-09-30T17:15:01.589Z,93.50
2018-09-30T17:17:30.332Z,93.70
2018-09-30T17:19:59.055Z,93.90
2018-09-30T17:22:27.664Z,93.90
2018-09-30T17:24:56.389Z,93.90
2018-09-30T17:27:25.076Z,94.10
2018-09-30T17:29:54.639Z,94.30
2018-09-30T17:32:23.326Z,94.20
2018-09-30T17:34:51.980Z,94.20
2018-09-30T17:37:20.621Z,94.20
2018-09-30T17:39:49.324Z,94.50
2018-09-30T17:42:18.101Z,94.60
2018-09-30T17:44:47.319Z,94.80
2018-09-30T17:47:16.015Z,94.70
2018-09-30T17:49:44.835Z,94.80
2018-09-30T17:52:13.570Z,94.90
2018-09-30T17:54:42.459Z,95.00
2018-09-30T17:57:11.719Z,95.20
2018-09-30T17:59:40.386Z,95.30
2018-09-30T18:02:09.227Z,95.30
2018-09-30T18:04:38.142Z,95.50
2018-09-30T18:07:07.129Z,95.60
2018-09-30T18:09:35.879Z,95.60
2018-09-30T18:12:04.593Z,95.70
2018-09-30T18:14:33.187Z,95.80
2018-09-30T18:17:08.556Z,96.30
2018-09-30T18:19:37.406Z,96.10
2018-09-30T18:22:06.148Z,96.20
2018-09-30T18:24:34.893Z,96.30
2018-09-30T18:27:03.671Z,96.90
2018-09-30T18:29:32.593Z,96.70
2018-09-30T18:32:01.391Z,96.80
2018-09-30T18:34:30.062Z,96.70
2018-09-30T18:36:58.918Z,97.10
2018-09-30T18:39:27.687Z,97.00
2018-09-30T18:41:56.526Z,97.20
2018-09-30T18:44:25.201Z,97.30
2018-09-30T18:46:53.916Z,97.40
2018-09-30T18:49:22.660Z,97.50
2018-09-30T18:51:51.656Z,97.30
2018-09-30T18:54:20.430Z,97.50
2018-09-30T18:56:49.643Z,97.30
2018-09-30T18:59:18.331Z,97.30
2018-09-30T19:01:47.103Z,97.30
2018-09-30T19:04:15.793Z,97.40
2018-09-30T19:06:44.468Z,97.30
2018-09-30T19:09:13.076Z,97.40
2018-09-30T19:11:41.718Z,97.80
2018-09-30T19:14:10.577Z,97.60
2018-09-30T19:16:39.243Z,97.90
2018-09-30T19:19:08.128Z,98.10
2018-09-30T19:21:36.784Z,98.40
2018-09-30T19:24:05.488Z,98.70
2018-09-30T19:26:34.280Z,98.80
2018-09-30T19:29:02.950Z,99.00
2018-09-30T19:31:31.828Z,99.10
2018-09-30T19:34:00.489Z,99.40
2018-09-30T19:36:29.213Z,99.70
2018-09-30T19:38:57.878Z,99.90
2018-09-30T19:41:26.926Z,99.90
2018-09-30T19:43:55.835Z,99.90
2018-09-30T19:46:24.479Z,99.90
2018-09-30T19:48:53.234Z,99.90
2018-09-30T19:51:21.794Z,99.90
2018-09-30T19:53:50.448Z,99.90
2018-09-30T19:56:20.194Z,99.90
2018-09-30T19:58:48.879Z,99.90
2018-09-30T20:01:17.561Z,99.90
2018-09-30T20:03:46.422Z,99.90
2018-09-30T20:06:15.107Z,99.90
2018-09-30T20:08:43.754Z,99.90
2018-09-30T20:11:12.545Z,99.90
2018-09-30T20:13:41.112Z,99.90
2018-09-30T20:16:09.716Z,99.90
2018-09-30T20:18:38.400Z,99.90
2018-09-30T20:21:06.823Z,99.90
2018-09-30T20:23:35.599Z,99.90
2018-09-30T20:26:04.213Z,99.90
2018-09-30T20:28:33.011Z,99.90
2018-09-30T20:31:01.681Z,99.90
2018-09-30T20:33:30.415Z,99.90
2018-09-30T20:35:59.720Z,99.90
2018-09-30T20:38:28.429Z,99.90
2018-09-30T20:40:57.990Z,99.90
2018-09-30T20:43:26.709Z,99.90
2018-09-30T20:45:55.315Z,99.90
2018-09-30T20:48:23.996Z,99.90
2018-09-30T20:50:52.612Z,99.90
2018-09-30T20:53:21.230Z,99.90
2018-09-30T20:55:49.954Z,99.90
2018-09-30T20:58:18.603Z,99.90
2018-09-30T21:00:47.534Z,99.90
2018-09-30T21:03:16.322Z,99.90
2018-09-30T21:06:29.064Z,99.90
2018-09-30T21:08:57.930Z,99.90
2018-09-30T21:11:26.861Z,99.90
2018-09-30T21:13:55.579Z,99.90
2018-09-30T21:16:24.320Z,99.90
2018-09-30T21:18:53.008Z,99.90
2018-09-30T21:21:21.598Z,99.90
2018-09-30T21:23:50.308Z,99.90
2018-09-30T21:26:18.991Z,99.90
2018-09-30T21:28:47.759Z,99.90
2018-09-30T21:31:16.546Z,99.90
2018-09-30T21:33:45.262Z,99.90
2018-09-30T21:36:13.947Z,99.90
2018-09-30T21:38:42.644Z,99.90
2018-09-30T21:41:11.341Z,99.90
2018-09-30T21:43:40.105Z,99.90
2018-09-30T21:46:09.011Z,99.90
2018-09-30T21:48:37.837Z,99.90
2018-09-30T21:51:06.503Z,99.90
2018-09-30T21:53:35.239Z,99.90
2018-09-30T21:56:04.063Z,99.90
2018-09-30T21:58:32.745Z,99.90
2018-09-30T22:01:03.973Z,99.90
2018-09-30T22:03:32.870Z,99.90
2018-09-30T22:06:01.710Z,99.90
2018-09-30T22:08:30.397Z,99.90
2018-09-30T22:10:59.134Z,99.90
2018-09-30T22:13:27.774Z,99.90
2018-09-30T22:15:56.386Z,99.90
2018-09-30T22:18:29.359Z,99.90
2018-09-30T22:20:58.147Z,99.90
2018-09-30T22:23:26.840Z,99.90
2018-09-30T22:25:55.437Z,99.90
2018-09-30T22:28:24.212Z,99.90
2018-09-30T22:30:53.180Z,99.90
2018-09-30T22:33:22.052Z,99.90
2018-09-30T22:35:50.777Z,99.90
2018-09-30T22:38:19.439Z,99.90
2018-09-30T22:40:48.091Z,99.90
2018-09-30T22:43:16.745Z,99.90
2018-09-30T22:45:45.422Z,99.90
2018-09-30T22:48:14.249Z,99.90
2018-09-30T22:50:42.918Z,99.90
2018-09-30T22:53:11.536Z,99.90
2018-09-30T22:55:40.179Z,99.90
2018-09-30T22:58:09.842Z,99.90
2018-09-30T23:00:38.565Z,99.90
2018-09-30T23:03:07.568Z,99.90
2018-09-30T23:05:36.278Z,99.90
2018-09-30T23:08:04.922Z,99.90
2018-09-30T23:10:33.589Z,99.90
2018-09-30T23:13:02.254Z,99.90
2018-09-30T23:15:30.945Z,99.90
2018-09-30T23:17:59.626Z,99.90
2018-09-30T23:20:28.379Z,99.90
2018-09-30T23:22:56.998Z,99.90
2018-09-30T23:25:25.582Z,99.90
2018-09-30T23:27:54.799Z,99.90
2018-09-30T23:30:23.461Z,99.90
2018-09-30T23:32:52.206Z,99.90
2018-09-30T23:35:20.786Z,99.90
2018-09-30T23:37:49.444Z,99.90
2018-09-30T23:40:18.347Z,99.90
2018-09-30T23:42:47.096Z,99.90
2018-09-30T23:45:15.728Z,99.90
2018-09-30T23:47:44.372Z,99.90
2018-09-30T23:50:13.253Z,99.90
2018-09-30T23:52:41.889Z,99.90
2018-09-30T23:55:10.659Z,99.90
2018-09-30T23:57:41.099Z,99.90
